Time;durP1;ratioP1;P1;durP2;ratioP2;P2;SDS_P1;SDS_P2;PMS_P1;PMS_P2;Temp;Humidity;BMP_temperature;BMP_pressure;BME280_temperature;BME280_humidity;BME280_pressure;Samples;Min_cycle;Max_cycle;Signal;HPM_P1;HPM_P2
2023/04/09 00:00:36;;;;;;;0.00;0.00;;;;;;;12.43;52.39;101401.81;7344278;19;20554;-62
2023/04/09 00:03:02;;;;;;;0.00;0.00;;;;;;;12.38;52.30;101406.28;7350933;19;20015;-62
2023/04/09 00:05:27;;;;;;;0.00;0.00;;;;;;;12.34;52.71;101404.59;7352463;19;20848;-62
2023/04/09 00:07:53;;;;;;;0.00;0.00;;;;;;;12.31;52.26;101407.28;7349083;19;20937;-62
2023/04/09 00:10:19;;;;;;;0.00;0.00;;;;;;;12.25;52.52;101400.41;7345496;19;20022;-62
2023/04/09 00:12:44;;;;;;;0.10;0.10;;;;;;;12.18;52.64;101397.03;7350742;19;20739;-63
2023/04/09 00:15:10;;;;;;;0.10;0.10;;;;;;;12.19;51.92;101401.38;7351092;19;20010;-62
2023/04/09 00:17:35;;;;;;;0.00;0.00;;;;;;;12.16;52.38;101390.09;7351884;19;20371;-62
2023/04/09 00:20:01;;;;;;;0.00;0.00;;;;;;;11.99;52.15;101358.97;7349673;19;20744;-62
2023/04/09 00:22:26;;;;;;;0.00;0.00;;;;;;;12.10;52.24;101380.59;7347841;19;20022;-63
2023/04/09 00:24:52;;;;;;;0.00;0.00;;;;;;;11.97;52.32;101345.06;7348367;19;20006;-63
2023/04/09 00:27:17;;;;;;;0.10;0.10;;;;;;;11.95;52.55;101345.06;7350428;19;20033;-62
2023/04/09 00:29:43;;;;;;;0.10;0.10;;;;;;;12.01;52.51;101354.56;7348365;19;20010;-62
2023/04/09 00:32:08;;;;;;;0.03;0.03;;;;;;;12.01;52.69;101364.19;7348798;19;20085;-62
2023/04/09 00:34:34;;;;;;;0.05;0.05;;;;;;;12.00;52.32;101363.31;7349551;19;20034;-62
2023/04/09 00:36:59;;;;;;;0.00;0.00;;;;;;;11.97;52.67;101352.94;7350020;19;20652;-63
2023/04/09 00:39:25;;;;;;;0.00;0.00;;;;;;;11.95;53.00;101359.91;7350638;19;20090;-63
2023/04/09 00:41:56;;;;;;;0.10;0.10;;;;;;;11.95;52.64;101357.31;7345116;19;20559;-62
2023/04/09 00:44:22;;;;;;;0.00;0.00;;;;;;;11.90;53.26;101367.84;7344422;19;20011;-62
2023/04/09 00:46:47;;;;;;;0.00;0.00;;;;;;;11.90;52.77;101361.75;7350130;19;20061;-62
2023/04/09 00:49:12;;;;;;;0.00;0.00;;;;;;;11.87;53.14;101361.84;7349593;19;20645;-62
2023/04/09 00:51:38;;;;;;;0.00;0.00;;;;;;;11.87;53.87;101367.06;7350228;19;20022;-63
2023/04/09 00:54:03;;;;;;;0.00;0.00;;;;;;;11.87;53.34;101367.06;7347464;19;20390;-62
2023/04/09 00:56:29;;;;;;;0.03;0.03;;;;;;;11.83;54.08;101354.91;7348482;19;20021;-62
2023/04/09 00:58:54;;;;;;;0.00;0.00;;;;;;;11.86;53.78;101354.84;7348665;19;20148;-62
2023/04/09 01:01:20;;;;;;;0.00;0.00;;;;;;;11.81;54.41;101340.94;7346222;19;20017;-62
2023/04/09 01:03:46;;;;;;;0.10;0.10;;;;;;;11.82;54.51;101353.19;7347263;19;20021;-62
2023/04/09 01:06:16;;;;;;;0.10;0.10;;;;;;;11.80;54.92;101336.59;7351632;19;20046;-62
2023/04/09 01:09:01;;;;;;;0.00;0.00;;;;;;;11.81;53.72;101346.19;7349844;19;20014;-63
2023/04/09 01:11:44;;;;;;;0.10;0.10;;;;;;;11.81;53.42;101351.41;7347555;19;20026;-62
2023/04/09 01:14:28;;;;;;;0.00;0.00;;;;;;;11.80;53.80;101339.22;7346442;19;20013;-63
2023/04/09 01:16:58;;;;;;;0.10;0.10;;;;;;;11.78;54.58;101335.78;7348945;19;20018;-62
2023/04/09 01:19:42;;;;;;;0.00;0.00;;;;;;;11.76;54.61;101337.53;7354828;19;20520;-63
2023/04/09 01:22:23;;;;;;;0.00;0.00;;;;;;;11.72;54.93;101322.81;7356233;19;21169;-63
2023/04/09 01:25:03;;;;;;;0.00;0.00;;;;;;;11.73;54.57;101329.78;7352501;19;20545;-63
2023/04/09 01:27:41;;;;;;;0.00;0.00;;;;;;;11.71;55.05;101340.28;7356841;19;20046;-63
2023/04/09 01:30:09;;;;;;;0.00;0.00;;;;;;;11.67;55.42;101318.53;7354198;19;20109;-63
2023/04/09 01:32:37;;;;;;;0.00;0.00;;;;;;;11.64;55.26;101315.94;7353173;19;20018;-62
2023/04/09 01:35:04;;;;;;;0.00;0.00;;;;;;;11.64;54.60;101308.09;7354732;19;20729;-62
2023/04/09 01:37:29;;;;;;;0.00;0.00;;;;;;;11.61;55.41;101305.56;7355471;19;20589;-62
2023/04/09 01:39:55;;;;;;;0.00;0.00;;;;;;;11.51;55.48;101285.69;7354891;19;20058;-62
2023/04/09 01:42:21;;;;;;;0.00;0.00;;;;;;;11.60;55.14;101306.41;7354817;19;20010;-63
2023/04/09 01:44:47;;;;;;;0.00;0.00;;;;;;;11.59;55.63;101302.09;7353968;19;21855;-63
2023/04/09 01:47:13;;;;;;;0.00;0.00;;;;;;;11.59;55.57;101294.22;7354963;19;20011;-63
2023/04/09 01:49:40;;;;;;;0.00;0.00;;;;;;;11.58;55.48;101287.28;7355507;19;22468;-62
2023/04/09 01:52:06;;;;;;;0.00;0.00;;;;;;;11.58;55.63;101282.06;7353912;19;20029;-62
2023/04/09 01:54:31;;;;;;;0.00;0.00;;;;;;;11.57;55.97;101272.47;7344002;19;19999;-63
2023/04/09 01:56:57;;;;;;;0.00;0.00;;;;;;;11.59;54.95;101273.31;7352495;19;20581;-62
2023/04/09 01:59:23;;;;;;;0.00;0.00;;;;;;;11.59;55.96;101268.06;7345823;19;20018;-62
2023/04/09 02:02:04;;;;;;;0.00;0.00;;;;;;;11.60;55.57;101254.09;7349143;19;20018;-63
2023/04/09 02:04:39;;;;;;;0.00;0.00;;;;;;;11.59;55.49;101262.84;7353686;19;20037;-62
2023/04/09 02:07:30;;;;;;;0.00;0.00;;;;;;;11.60;55.33;101243.63;7354858;19;20013;-62
2023/04/09 02:09:58;;;;;;;0.10;0.10;;;;;;;11.57;55.33;101248.94;7251528;19;2004478;-63
2023/04/09 02:12:24;;;;;;;0.00;0.00;;;;;;;11.56;55.68;101221.06;7355915;19;20070;-62
2023/04/09 02:14:51;;;;;;;0.10;0.10;;;;;;;11.43;55.71;101191.66;7349826;19;20042;-63
2023/04/09 02:17:17;;;;;;;0.00;0.00;;;;;;;11.56;55.66;101215.84;7355578;19;20003;-63
2023/04/09 02:19:44;;;;;;;0.00;0.00;;;;;;;11.56;56.01;101221.06;7348552;19;20010;-62
2023/04/09 02:22:10;;;;;;;0.00;0.00;;;;;;;11.54;55.52;101224.59;7355610;19;20043;-62
2023/04/09 02:24:36;;;;;;;0.00;0.00;;;;;;;11.58;55.66;101234.97;7353187;19;20093;-63
2023/04/09 02:27:02;;;;;;;0.00;0.00;;;;;;;11.57;55.38;101238.47;7354219;19;20085;-63
2023/04/09 02:29:28;;;;;;;0.00;0.00;;;;;;;11.56;56.08;101242.00;7351861;19;20014;-63
2023/04/09 02:31:54;;;;;;;0.00;0.00;;;;;;;11.55;56.65;101245.47;7353948;19;20007;-62
2023/04/09 02:34:19;;;;;;;0.00;0.00;;;;;;;11.56;55.70;101244.59;7355637;19;20101;-63
2023/04/09 02:36:45;;;;;;;0.00;0.00;;;;;;;11.56;56.06;101241.13;7350268;19;20365;-62
2023/04/09 02:39:10;;;;;;;0.00;0.00;;;;;;;11.55;56.00;101240.25;7352533;19;20015;-63
2023/04/09 02:41:35;;;;;;;0.00;0.00;;;;;;;11.55;56.08;101235.00;7350412;19;20029;-63
2023/04/09 02:44:01;;;;;;;0.03;0.03;;;;;;;11.54;56.26;101227.19;7354386;19;20022;-63
2023/04/09 02:46:26;;;;;;;0.00;0.00;;;;;;;11.51;56.83;101217.69;7352922;19;20074;-62
2023/04/09 02:48:52;;;;;;;0.00;0.00;;;;;;;11.53;56.96;101220.25;7350557;19;22340;-63
2023/04/09 02:51:17;;;;;;;0.00;0.00;;;;;;;11.54;56.10;101233.28;7352600;19;20036;-63
2023/04/09 02:53:44;;;;;;;0.03;0.03;;;;;;;11.54;57.37;101220.22;7354698;19;20471;-63
2023/04/09 02:56:09;;;;;;;0.00;0.00;;;;;;;11.53;57.22;101210.66;7347861;19;20017;-64
2023/04/09 02:58:35;;;;;;;0.10;0.10;;;;;;;11.53;56.77;101200.19;7353454;19;20763;-63
2023/04/09 03:01:00;;;;;;;0.00;0.00;;;;;;;11.52;57.69;101198.47;7351911;19;20497;-63
2023/04/09 03:03:26;;;;;;;0.00;0.00;;;;;;;11.53;56.55;101205.41;7331768;19;20010;-62
2023/04/09 03:05:51;;;;;;;0.00;0.00;;;;;;;11.35;57.57;101170.03;7355037;19;20014;-62
2023/04/09 03:08:16;;;;;;;0.03;0.03;;;;;;;11.53;57.19;101189.72;7356174;19;20021;-62
2023/04/09 03:10:42;;;;;;;0.10;0.10;;;;;;;11.53;57.40;101191.47;7355950;19;20018;-63
2023/04/09 03:13:07;;;;;;;0.05;0.05;;;;;;;11.52;57.09;101182.78;7350250;19;20123;-62
2023/04/09 03:15:33;;;;;;;0.00;0.00;;;;;;;11.51;57.61;101186.28;7354535;19;20010;-63
2023/04/09 03:17:58;;;;;;;0.00;0.00;;;;;;;11.47;57.29;101168.94;7347962;19;20050;-63
2023/04/09 03:20:23;;;;;;;0.05;0.05;;;;;;;11.51;57.65;101181.06;7339604;19;20022;-62
2023/04/09 03:22:49;;;;;;;0.10;0.10;;;;;;;11.51;57.66;101175.81;7350809;19;20010;-63
2023/04/09 03:25:14;;;;;;;0.03;0.03;;;;;;;11.50;58.01;101163.63;7353028;19;20165;-63
2023/04/09 03:27:40;;;;;;;0.00;0.00;;;;;;;11.50;57.40;101168.00;7357363;19;20013;-63
2023/04/09 03:30:06;;;;;;;0.00;0.00;;;;;;;11.50;57.90;101179.31;7357311;19;20360;-63
2023/04/09 03:32:31;;;;;;;0.10;0.10;;;;;;;11.51;57.35;101164.50;7356420;19;20010;-62
2023/04/09 03:34:57;;;;;;;0.00;0.00;;;;;;;11.50;57.03;101158.38;7357037;19;20050;-63
2023/04/09 03:37:22;;;;;;;0.10;0.10;;;;;;;11.50;58.11;101165.38;7356506;19;19998;-63
2023/04/09 03:39:47;;;;;;;0.10;0.10;;;;;;;11.49;57.88;101159.28;7356479;19;20029;-63
2023/04/09 03:42:13;;;;;;;0.10;0.10;;;;;;;11.49;57.62;101161.03;7354538;19;20029;-63
2023/04/09 03:44:38;;;;;;;0.00;0.00;;;;;;;11.35;57.48;101138.66;7355945;19;20466;-63
2023/04/09 03:47:04;;;;;;;0.00;0.00;;;;;;;11.47;58.08;101155.00;7355994;19;21028;-63
2023/04/09 03:49:29;;;;;;;0.00;0.00;;;;;;;11.48;57.91;101167.16;7355513;19;20014;-63
2023/04/09 03:51:55;;;;;;;0.00;0.00;;;;;;;11.47;57.89;101153.22;7356803;19;20010;-63
2023/04/09 03:54:20;;;;;;;0.10;0.10;;;;;;;11.49;57.60;101161.03;7353689;19;20037;-63
2023/04/09 03:56:45;;;;;;;0.05;0.05;;;;;;;11.43;58.10;101141.09;7356337;19;20789;-63
2023/04/09 03:59:11;;;;;;;0.00;0.00;;;;;;;11.48;57.90;101154.94;7354854;19;20095;-63
2023/04/09 04:01:36;;;;;;;0.00;0.00;;;;;;;11.47;58.25;101148.00;7355981;19;20033;-63
2023/04/09 04:04:02;;;;;;;0.00;0.00;;;;;;;11.46;58.33;101140.19;7351725;19;20027;-63
2023/04/09 04:06:27;;;;;;;0.05;0.05;;;;;;;11.46;58.56;101138.44;7356996;19;20022;-63
2023/04/09 04:08:52;;;;;;;0.00;0.00;;;;;;;11.47;58.54;101142.78;7350922;19;20006;-63
2023/04/09 04:11:18;;;;;;;0.00;0.00;;;;;;;11.48;58.80;101144.50;7356246;19;20027;-63
2023/04/09 04:13:43;;;;;;;0.00;0.00;;;;;;;11.49;58.58;101146.22;7353666;19;20015;-63
2023/04/09 04:16:09;;;;;;;0.00;0.00;;;;;;;11.48;58.64;101134.03;7356937;19;20006;-63
2023/04/09 04:18:35;;;;;;;0.08;0.08;;;;;;;11.47;58.53;101127.06;7352865;19;20010;-63
2023/04/09 04:21:00;;;;;;;0.10;0.10;;;;;;;11.47;58.76;101127.06;7352033;19;20351;-63
2023/04/09 04:23:26;;;;;;;0.08;0.08;;;;;;;11.45;57.69;101123.63;7353651;19;20006;-63
2023/04/09 04:25:56;;;;;;;0.03;0.03;;;;;;;11.48;58.33;101120.94;7355297;19;20014;-63
2023/04/09 04:28:25;;;;;;;0.00;0.00;;;;;;;11.48;58.95;101120.94;7354819;19;20022;-63
2023/04/09 04:30:50;;;;;;;0.03;0.03;;;;;;;11.49;58.39;101104.38;7352902;19;21303;-63
2023/04/09 04:33:15;;;;;;;0.00;0.00;;;;;;;11.49;58.37;101106.97;7348262;19;20023;-63
2023/04/09 04:35:41;;;;;;;0.00;0.00;;;;;;;11.49;58.86;101096.50;7355792;19;20039;-63
2023/04/09 04:38:06;;;;;;;0.10;0.10;;;;;;;11.49;58.50;101101.75;7352960;19;20019;-63
2023/04/09 04:40:32;;;;;;;0.00;0.00;;;;;;;11.49;59.01;101087.81;7351557;19;20481;-63
2023/04/09 04:42:57;;;;;;;0.00;0.00;;;;;;;11.48;59.13;101086.94;7352085;19;20043;-63
2023/04/09 04:45:22;;;;;;;0.00;0.00;;;;;;;11.47;58.80;101082.63;7353270;19;20136;-63
2023/04/09 04:47:48;;;;;;;0.00;0.00;;;;;;;11.47;59.13;101072.16;7354161;19;20456;-63
2023/04/09 04:50:13;;;;;;;0.00;0.00;;;;;;;11.49;58.37;101066.88;7354076;19;20025;-63
2023/04/09 04:52:39;;;;;;;0.10;0.10;;;;;;;11.45;59.04;101063.47;7355603;19;20011;-62
2023/04/09 04:55:05;;;;;;;0.10;0.10;;;;;;;11.47;58.56;101074.78;7357817;19;20006;-63
2023/04/09 04:57:31;;;;;;;0.00;0.00;;;;;;;11.47;59.03;101053.00;7362160;19;20078;-63
2023/04/09 04:59:56;;;;;;;0.00;0.00;;;;;;;11.47;57.98;101061.69;7357959;19;20637;-63
2023/04/09 05:02:22;;;;;;;0.00;0.00;;;;;;;11.46;59.38;101052.13;7358295;19;20612;-63
2023/04/09 05:04:47;;;;;;;0.00;0.00;;;;;;;11.44;59.15;101048.69;7357320;19;20018;-63
2023/04/09 05:07:12;;;;;;;0.00;0.00;;;;;;;11.39;58.08;101035.69;7362327;19;20010;-63
2023/04/09 05:09:38;;;;;;;0.00;0.00;;;;;;;11.44;59.18;101039.06;7356998;19;20007;-63
2023/04/09 05:12:03;;;;;;;0.10;0.10;;;;;;;11.44;59.01;101038.22;7362368;19;20364;-63
2023/04/09 05:14:29;;;;;;;0.10;0.10;;;;;;;11.44;58.80;101041.69;7355732;19;20496;-63
2023/04/09 05:16:54;;;;;;;0.00;0.00;;;;;;;11.44;58.81;101032.97;7361066;19;20620;-63
2023/04/09 05:19:20;;;;;;;0.00;0.00;;;;;;;11.43;59.33;101019.06;7357889;19;20014;-62
2023/04/09 05:21:45;;;;;;;0.10;0.10;;;;;;;11.42;58.77;101024.31;7362185;19;20017;-63
2023/04/09 05:24:11;;;;;;;0.10;0.10;;;;;;;11.41;58.94;101033.94;7358064;19;20106;-63
2023/04/09 05:26:36;;;;;;;0.03;0.03;;;;;;;11.40;59.67;101023.47;7358146;19;20556;-63
2023/04/09 05:29:02;;;;;;;0.00;0.00;;;;;;;11.40;58.74;101019.13;7357704;19;20621;-63
2023/04/09 05:31:27;;;;;;;0.00;0.00;;;;;;;11.41;59.75;101020.00;7357684;19;20014;-63
2023/04/09 05:33:52;;;;;;;0.05;0.05;;;;;;;11.40;59.87;101026.09;7358261;19;20018;-63
2023/04/09 05:36:18;;;;;;;0.03;0.03;;;;;;;11.39;59.93;101025.22;7353484;19;20646;-63
2023/04/09 05:38:47;;;;;;;0.00;0.00;;;;;;;11.41;59.72;101012.16;7360846;19;20047;-63
2023/04/09 05:41:12;;;;;;;0.00;0.00;;;;;;;11.39;60.68;101008.69;7357048;19;20463;-63
2023/04/09 05:43:37;;;;;;;0.10;0.10;;;;;;;11.37;60.45;101019.19;7359921;19;20018;-63
2023/04/09 05:46:03;;;;;;;0.03;0.03;;;;;;;11.36;60.27;101025.31;7358242;19;20014;-63
2023/04/09 05:48:28;;;;;;;0.00;0.00;;;;;;;11.34;60.57;101028.84;7359609;19;20035;-63
2023/04/09 05:50:54;;;;;;;0.00;0.00;;;;;;;11.34;60.45;101024.47;7358779;19;20010;-63
2023/04/09 05:53:20;;;;;;;0.08;0.08;;;;;;;11.32;61.29;101022.78;7358897;19;20015;-63
2023/04/09 05:55:47;;;;;;;0.00;0.00;;;;;;;11.33;60.82;101024.50;7355284;19;20007;-63
2023/04/09 05:58:14;;;;;;;0.05;0.05;;;;;;;11.33;61.18;101024.50;7344205;19;20025;-62
2023/04/09 06:00:40;;;;;;;0.10;0.10;;;;;;;11.32;61.43;101034.09;7355379;19;20071;-63
2023/04/09 06:03:05;;;;;;;0.00;0.00;;;;;;;11.32;61.26;101039.34;7352918;19;20018;-63
2023/04/09 06:05:31;;;;;;;0.00;0.00;;;;;;;11.33;61.44;101037.59;7352731;19;20641;-63
2023/04/09 06:07:56;;;;;;;0.00;0.00;;;;;;;11.32;61.28;101043.72;7355531;19;20126;-62
2023/04/09 06:10:23;;;;;;;0.03;0.03;;;;;;;11.33;61.43;101059.34;7357129;19;20470;-63
2023/04/09 06:12:49;;;;;;;0.00;0.00;;;;;;;11.33;61.63;101053.28;7353902;19;20982;-63
2023/04/09 06:15:14;;;;;;;0.00;0.00;;;;;;;11.08;61.97;101009.31;7355924;19;20091;-63
2023/04/09 06:17:40;;;;;;;0.00;0.00;;;;;;;11.31;61.99;101057.69;7355072;19;20019;-63
2023/04/09 06:20:05;;;;;;;0.05;0.05;;;;;;;11.27;62.14;101042.94;7354959;19;20018;-63
2023/04/09 06:22:31;;;;;;;0.00;0.00;;;;;;;11.33;62.05;101051.50;7354424;19;20693;-63
2023/04/09 06:24:56;;;;;;;0.00;0.00;;;;;;;11.34;62.37;101048.00;7356191;19;20647;-63
2023/04/09 06:27:22;;;;;;;0.00;0.00;;;;;;;11.36;62.61;101040.16;7356737;19;20034;-63
2023/04/09 06:29:47;;;;;;;0.10;0.10;;;;;;;11.38;62.19;101040.97;7350573;19;20010;-63
2023/04/09 06:32:13;;;;;;;0.08;0.08;;;;;;;11.38;61.90;101027.88;7355729;19;20031;-63
2023/04/09 06:34:38;;;;;;;0.00;0.00;;;;;;;11.45;61.54;101045.16;7354102;19;20015;-63
2023/04/09 06:37:04;;;;;;;0.08;0.08;;;;;;;11.46;61.76;101046.06;7353189;19;20014;-63
2023/04/09 06:39:29;;;;;;;0.00;0.00;;;;;;;11.48;62.58;101029.41;7356632;19;20574;-63
2023/04/09 06:41:55;;;;;;;0.00;0.00;;;;;;;11.45;62.33;101024.25;7353871;19;20014;-63
2023/04/09 06:44:20;;;;;;;0.10;0.10;;;;;;;11.51;62.77;101034.59;7349563;19;20020;-63
2023/04/09 06:46:46;;;;;;;0.00;0.00;;;;;;;11.56;62.32;101017.06;7355956;19;20872;-62
2023/04/09 06:49:11;;;;;;;0.00;0.00;;;;;;;11.59;62.03;101018.72;7352596;19;20011;-63
2023/04/09 06:51:37;;;;;;;0.00;0.00;;;;;;;11.61;62.11;101009.97;7355345;19;20508;-63
2023/04/09 06:54:02;;;;;;;0.10;0.10;;;;;;;11.62;61.94;101005.59;7353621;19;20010;-63
2023/04/09 06:56:27;;;;;;;0.00;0.00;;;;;;;11.68;61.43;100990.59;7355484;19;20018;-63
2023/04/09 06:58:53;;;;;;;0.00;0.00;;;;;;;11.61;61.71;100981.19;7352809;19;20741;-63
2023/04/09 07:01:19;;;;;;;0.10;0.10;;;;;;;11.70;61.22;100988.81;7353885;19;20018;-63
2023/04/09 07:03:45;;;;;;;0.00;0.00;;;;;;;11.64;61.83;100968.03;7354720;19;20047;-63
2023/04/09 07:06:10;;;;;;;0.00;0.00;;;;;;;11.74;62.00;100979.16;7356577;19;21449;-63
2023/04/09 07:08:36;;;;;;;0.00;0.00;;;;;;;11.79;61.88;100989.50;7357336;19;20014;-63
2023/04/09 07:11:02;;;;;;;0.00;0.00;;;;;;;11.80;61.70;100978.13;7350568;19;20215;-63
2023/04/09 07:13:27;;;;;;;0.00;0.00;;;;;;;11.73;61.61;100955.63;7353512;19;20010;-63
2023/04/09 07:15:53;;;;;;;0.00;0.00;;;;;;;11.88;60.93;100973.63;7355592;19;20027;-63
2023/04/09 07:18:19;;;;;;;0.00;0.00;;;;;;;11.89;61.61;100972.72;7352406;19;20014;-63
2023/04/09 07:20:44;;;;;;;0.00;0.00;;;;;;;11.92;61.87;100956.97;7353812;19;20120;-63
2023/04/09 07:23:10;;;;;;;0.08;0.08;;;;;;;11.90;61.12;100953.50;7356388;19;20014;-63
2023/04/09 07:25:36;;;;;;;0.00;0.00;;;;;;;11.97;61.48;100952.47;7354142;19;20387;-64
2023/04/09 07:28:01;;;;;;;0.10;0.10;;;;;;;12.01;61.52;100941.00;7352631;19;20048;-63
2023/04/09 07:30:27;;;;;;;0.00;0.00;;;;;;;12.04;60.96;100933.09;7343693;19;20375;-63
2023/04/09 07:32:53;;;;;;;0.00;0.00;;;;;;;11.93;61.47;100919.41;7356201;19;20014;-63
2023/04/09 07:35:18;;;;;;;0.10;0.10;;;;;;;12.09;61.58;100944.31;7352853;19;20049;-63
2023/04/09 07:37:44;;;;;;;0.00;0.00;;;;;;;12.12;61.38;100928.53;7355866;19;20078;-63
2023/04/09 07:40:09;;;;;;;0.00;0.00;;;;;;;12.17;60.79;100933.66;7355371;19;20006;-63
2023/04/09 07:42:38;;;;;;;0.00;0.00;;;;;;;12.22;60.97;100933.53;7353172;19;20461;-63
2023/04/09 07:45:05;;;;;;;0.00;0.00;;;;;;;12.23;61.37;100924.78;7352637;19;20382;-63
2023/04/09 07:47:31;;;;;;;0.10;0.10;;;;;;;12.16;61.37;100908.34;7355457;19;20014;-63
2023/04/09 07:49:57;;;;;;;0.00;0.00;;;;;;;12.29;61.25;100935.09;7353704;19;20433;-63
2023/04/09 07:52:23;;;;;;;0.10;0.10;;;;;;;12.31;61.39;100902.72;7355378;19;20034;-63
2023/04/09 07:54:48;;;;;;;0.05;0.05;;;;;;;12.33;61.57;100900.06;7354029;19;20113;-63
2023/04/09 07:57:13;;;;;;;0.08;0.08;;;;;;;12.37;61.26;100906.97;7355117;19;20017;-63
2023/04/09 07:59:39;;;;;;;0.08;0.08;;;;;;;12.41;61.29;100903.34;7354108;19;20112;-63
2023/04/09 08:02:04;;;;;;;0.00;0.00;;;;;;;12.47;61.38;100911.03;7351107;19;20021;-63
2023/04/09 08:04:30;;;;;;;0.00;0.00;;;;;;;12.52;61.39;100913.50;7350838;19;20010;-63
2023/04/09 08:06:55;;;;;;;0.00;0.00;;;;;;;12.58;61.21;100921.22;7334759;19;20081;-63
2023/04/09 08:09:21;;;;;;;0.10;0.10;;;;;;;12.61;62.01;100906.25;7349363;19;20056;-63
2023/04/09 08:11:48;;;;;;;0.00;0.00;;;;;;;12.66;61.75;100893.88;7353794;19;20014;-63
2023/04/09 08:14:14;;;;;;;0.00;0.00;;;;;;;12.73;61.55;100910.31;7352750;19;20058;-63
2023/04/09 08:16:42;;;;;;;0.08;0.08;;;;;;;12.83;61.22;100910.91;7351695;19;20014;-63
2023/04/09 08:19:08;;;;;;;0.00;0.00;;;;;;;12.89;61.69;100911.59;7353738;19;20842;-63
2023/04/09 08:21:36;;;;;;;0.10;0.10;;;;;;;13.00;61.06;100919.16;7348655;19;22438;-63
2023/04/09 08:24:03;;;;;;;0.00;0.00;;;;;;;13.05;60.85;100926.88;7352646;19;20019;-63
2023/04/09 08:26:29;;;;;;;0.00;0.00;;;;;;;13.17;60.77;100916.88;7329079;19;20014;-63
2023/04/09 08:28:55;;;;;;;0.00;0.00;;;;;;;13.24;60.70;100912.34;7351303;19;20014;-63
2023/04/09 08:31:21;;;;;;;0.10;0.10;;;;;;;13.30;60.54;100906.06;7349500;19;20017;-63
2023/04/09 08:33:46;;;;;;;0.10;0.10;;;;;;;13.36;60.29;100900.63;7351279;19;20007;-63
2023/04/09 08:36:12;;;;;;;0.00;0.00;;;;;;;13.40;60.34;100903.09;7352373;19;20015;-63
2023/04/09 08:38:37;;;;;;;0.10;0.10;;;;;;;13.44;59.95;100899.47;7352400;19;20595;-63
2023/04/09 08:41:03;;;;;;;0.00;0.00;;;;;;;13.45;60.28;100900.34;7347336;19;20810;-63
2023/04/09 08:43:30;;;;;;;0.05;0.05;;;;;;;13.48;60.35;100902.84;7344210;19;20015;-63
2023/04/09 08:45:58;;;;;;;0.10;0.10;;;;;;;13.57;60.38;100910.44;7345457;19;20086;-63
2023/04/09 08:48:24;;;;;;;0.10;0.10;;;;;;;13.67;60.19;100901.34;7352113;19;20022;-63
2023/04/09 08:50:50;;;;;;;0.10;0.10;;;;;;;13.71;59.82;100894.25;7345623;19;20018;-63
2023/04/09 08:53:16;;;;;;;0.00;0.00;;;;;;;13.92;59.23;100900.56;7344954;19;20018;-63
2023/04/09 08:55:44;;;;;;;0.10;0.10;;;;;;;14.02;58.80;100904.59;7339934;19;20010;-63
2023/04/09 08:58:10;;;;;;;0.00;0.00;;;;;;;14.06;58.84;100893.09;7340861;19;20138;-63
2023/04/09 09:00:36;;;;;;;0.00;0.00;;;;;;;14.13;58.79;100902.47;7341558;19;20097;-63
2023/04/09 09:03:14;;;;;;;0.10;0.10;;;;;;;14.26;58.46;100884.53;7350573;19;20014;-63
2023/04/09 09:05:44;;;;;;;0.00;0.00;;;;;;;14.36;58.04;100879.81;7345434;19;20093;-63
2023/04/09 09:08:22;;;;;;;0.10;0.10;;;;;;;14.49;57.91;100881.09;7346309;19;20082;-62
2023/04/09 09:10:47;;;;;;;0.08;0.08;;;;;;;14.57;57.70;100876.44;7346875;19;20582;-63
2023/04/09 09:13:22;;;;;;;0.00;0.00;;;;;;;14.60;57.68;100851.78;7349145;19;20014;-63
2023/04/09 09:15:51;;;;;;;0.10;0.10;;;;;;;14.79;57.12;100869.44;7350089;19;20021;-63
2023/04/09 09:18:18;;;;;;;0.10;0.10;;;;;;;14.87;56.71;100868.31;7347524;19;20470;-63
2023/04/09 09:20:43;;;;;;;0.00;0.00;;;;;;;14.84;56.40;100850.88;7345709;19;20514;-63
2023/04/09 09:23:09;;;;;;;0.10;0.10;;;;;;;14.99;56.05;100859.97;7349849;19;20026;-63
2023/04/09 09:25:39;;;;;;;0.00;0.00;;;;;;;15.05;55.86;100864.97;7346486;19;20014;-63
2023/04/09 09:28:09;;;;;;;0.10;0.10;;;;;;;15.07;56.03;100863.16;7349106;19;20625;-63
2023/04/09 09:30:37;;;;;;;0.10;0.10;;;;;;;15.08;55.92;100859.63;7347770;19;20007;-63
2023/04/09 09:33:05;;;;;;;0.10;0.10;;;;;;;15.16;55.91;100867.22;7339272;19;20762;-63
2023/04/09 09:35:47;;;;;;;0.05;0.05;;;;;;;15.24;56.33;100860.72;7345487;19;20022;-63
2023/04/09 09:38:12;;;;;;;0.08;0.08;;;;;;;15.24;55.20;100865.97;7348662;19;20022;-63
2023/04/09 09:40:38;;;;;;;0.00;0.00;;;;;;;15.27;55.46;100865.88;7353888;19;20863;-63
2023/04/09 09:43:03;;;;;;;0.10;0.10;;;;;;;15.31;55.36;100859.56;7352351;19;20011;-63
2023/04/09 09:45:29;;;;;;;0.00;0.00;;;;;;;15.24;54.70;100850.19;7345950;19;20018;-63
2023/04/09 09:47:55;;;;;;;0.10;0.10;;;;;;;15.40;54.52;100870.63;7358663;19;20014;-63
2023/04/09 09:50:27;;;;;;;0.00;0.00;;;;;;;15.43;54.59;100865.25;7354229;19;20015;-63
2023/04/09 09:53:02;;;;;;;0.00;0.00;;;;;;;15.47;54.98;100861.59;7358322;19;20014;-63
2023/04/09 09:55:30;;;;;;;0.00;0.00;;;;;;;15.49;54.60;100865.84;7353601;19;20652;-63
2023/04/09 09:58:00;;;;;;;0.10;0.10;;;;;;;15.51;54.58;100857.91;7351391;19;20010;-63
2023/04/09 10:00:27;;;;;;;0.10;0.10;;;;;;;15.52;54.42;100846.47;7353528;19;20011;-63
2023/04/09 10:02:57;;;;;;;0.10;0.10;;;;;;;15.60;54.20;100840.88;7349617;19;20766;-63
2023/04/09 10:05:26;;;;;;;0.10;0.10;;;;;;;15.46;54.41;100817.75;7355482;19;20814;-63
2023/04/09 10:07:55;;;;;;;0.05;0.05;;;;;;;15.65;54.27;100844.22;7358272;19;20010;-63
2023/04/09 10:10:22;;;;;;;0.00;0.00;;;;;;;15.68;54.37;100850.22;7354449;19;20018;-63
2023/04/09 10:12:48;;;;;;;0.00;0.00;;;;;;;15.68;54.16;100844.94;7351992;19;20022;-63
2023/04/09 10:15:13;;;;;;;0.10;0.10;;;;;;;15.68;53.55;100834.41;7355717;19;20015;-63
2023/04/09 10:17:39;;;;;;;0.10;0.10;;;;;;;15.69;53.21;100819.47;7352079;19;20014;-63
2023/04/09 10:20:11;;;;;;;0.10;0.10;;;;;;;15.65;52.82;100799.47;7354090;19;20070;-62
2023/04/09 10:22:38;;;;;;;0.10;0.10;;;;;;;15.67;53.07;100816.91;7350393;19;20029;-63
2023/04/09 10:25:05;;;;;;;0.10;0.10;;;;;;;15.67;52.88;100810.78;7344552;19;21160;-63
2023/04/09 10:27:31;;;;;;;0.10;0.10;;;;;;;15.51;53.30;100790.34;7358055;19;20010;-63
2023/04/09 10:29:58;;;;;;;0.00;0.00;;;;;;;15.63;53.82;100803.91;7349827;19;20010;-63
2023/04/09 10:32:26;;;;;;;0.10;0.10;;;;;;;15.60;54.23;100791.72;7345228;19;20014;-63
2023/04/09 10:34:56;;;;;;;0.10;0.10;;;;;;;15.63;53.57;100802.16;7347370;19;20764;-63
2023/04/09 10:37:25;;;;;;;0.10;0.10;;;;;;;15.51;53.85;100781.56;7349303;19;21564;-63
2023/04/09 10:39:51;;;;;;;0.10;0.10;;;;;;;15.56;53.62;100777.84;7345510;19;20510;-63
2023/04/09 10:42:23;;;;;;;0.10;0.10;;;;;;;15.53;54.29;100777.13;7353966;19;20010;-63
2023/04/09 10:45:12;;;;;;;0.10;0.10;;;;;;;15.54;53.80;100768.28;7357253;19;20760;-63
2023/04/09 10:47:41;;;;;;;0.10;0.10;;;;;;;15.47;54.66;100756.31;7357325;19;20003;-63
2023/04/09 10:50:36;;;;;;;0.10;0.10;;;;;;;15.52;53.76;100770.16;7350138;19;20011;-63
2023/04/09 10:53:03;;;;;;;0.10;0.10;;;;;;;15.46;54.21;100765.13;7246513;19;2004627;-63
2023/04/09 10:55:39;;;;;;;0.10;0.10;;;;;;;15.43;53.70;100760.00;7347471;19;20038;-63
2023/04/09 10:58:09;;;;;;;0.00;0.00;;;;;;;15.35;54.35;100741.03;7347879;19;20014;-63
2023/04/09 11:00:43;;;;;;;0.10;0.10;;;;;;;15.27;54.60;100755.38;7348621;19;20018;-63
2023/04/09 11:03:22;;;;;;;0.10;0.10;;;;;;;15.23;54.73;100747.66;7348648;19;20003;-63
2023/04/09 11:05:51;;;;;;;0.00;0.00;;;;;;;15.08;54.82;100714.94;7357506;19;20010;-63
2023/04/09 11:08:17;;;;;;;0.10;0.10;;;;;;;15.02;55.35;100708.19;7334324;19;20014;-63
2023/04/09 11:10:44;;;;;;;0.05;0.05;;;;;;;15.02;55.28;100731.00;7344066;19;20020;-63
2023/04/09 11:13:14;;;;;;;0.10;0.10;;;;;;;15.00;55.98;100719.66;7340644;19;20017;-63
2023/04/09 11:15:40;;;;;;;0.03;0.03;;;;;;;14.93;55.82;100728.72;7345247;19;20027;-63
2023/04/09 11:18:12;;;;;;;0.10;0.10;;;;;;;14.97;56.21;100732.94;7346290;19;20014;-63
2023/04/09 11:20:39;;;;;;;0.00;0.00;;;;;;;14.95;56.29;100726.88;7341842;19;20018;-63
2023/04/09 11:23:04;;;;;;;0.00;0.00;;;;;;;14.98;56.57;100729.41;7337787;19;20033;-63